Terminal Aerodrome Forecast
Issued by NWS

Home | Current Version | Previous Version | Text Only | Print | Product List | Glossary On
Versions: 1 2 3 4 5 6 7 8 9 10 11 12 13 14 15 16 17 18 19 20 21 22 23 24 25 26 27 28 29 30 31 32 33 34 35 36 37 38 39 40 41 42 43 44 45
000
FTUS41 KGYX 242320
TAFMHT
TAF
KMHT 242320Z 2500/2524 36006KT P6SM FEW100
     FM251000 02007KT P6SM BKN050 OVC100
     FM251200 04008KT 2SM -SN BKN015 OVC025
     FM251600 05008KT 1SM -FZRAPL OVC007
     FM251900 08008KT 2SM -RA OVC007
     FM252300 34006KT P6SM SCT025=

USA.gov is the U.S. government's official web portal to all federal, state and local government web resources and services.